createdAt,value
2023-01-30T00:01:30.160Z,20.70
2023-01-30T00:49:45.884Z,17.27
2023-01-30T00:52:15.269Z,18.70
2023-01-30T00:54:44.069Z,20.20
2023-01-30T00:57:16.218Z,18.50
2023-01-30T00:59:44.569Z,18.80
2023-01-30T01:15:42.897Z,16.93
2023-01-30T01:20:46.861Z,17.87
2023-01-30T01:23:15.656Z,17.33
2023-01-30T01:25:44.224Z,17.50
2023-01-30T01:28:12.760Z,17.97
2023-01-30T01:38:39.207Z,17.00
2023-01-30T02:54:14.490Z,19.93
2023-01-30T02:56:53.136Z,20.97
2023-01-30T03:02:05.627Z,19.30
2023-01-30T03:04:35.837Z,16.97
2023-01-30T03:10:21.840Z,19.70
2023-01-30T03:13:04.405Z,19.97
2023-01-30T03:15:54.719Z,20.00
2023-01-30T03:18:22.860Z,19.43
2023-01-30T03:20:51.701Z,20.53
2023-01-30T03:23:21.099Z,18.77
2023-01-30T03:25:48.763Z,19.33
2023-01-30T03:57:58.239Z,22.27
2023-01-30T04:00:28.058Z,18.63
2023-01-30T04:02:57.306Z,20.00
2023-01-30T04:05:26.147Z,19.60
2023-01-30T04:07:59.386Z,20.27
2023-01-30T04:10:27.882Z,19.27
2023-01-30T04:34:25.001Z,19.27
2023-01-30T04:36:53.732Z,19.60
2023-01-30T04:39:22.268Z,19.27
2023-01-30T04:41:50.631Z,18.13
2023-01-30T04:44:19.499Z,18.97
2023-01-30T04:52:06.227Z,18.93
2023-01-30T04:54:34.640Z,19.00
2023-01-30T05:13:56.079Z,18.90
2023-01-30T05:16:25.000Z,19.20
2023-01-30T05:18:52.205Z,16.73
2023-01-30T05:21:22.830Z,19.77
2023-01-30T05:23:52.331Z,18.63
2023-01-30T05:26:20.982Z,19.20
2023-01-30T05:28:55.136Z,20.13
2023-01-30T05:31:23.415Z,18.30
2023-01-30T05:39:15.915Z,17.80
2023-01-30T06:19:59.916Z,17.37
2023-01-30T06:22:28.471Z,16.33
2023-01-30T06:24:57.065Z,17.87
2023-01-30T06:27:25.469Z,18.87
2023-01-30T06:29:54.157Z,18.37
2023-01-30T06:32:22.921Z,20.90
2023-01-30T06:34:51.617Z,21.30
2023-01-30T06:37:20.223Z,18.93
2023-01-30T06:39:48.140Z,18.00
2023-01-30T06:42:16.500Z,17.23
2023-01-30T06:44:45.605Z,18.27
2023-01-30T06:47:14.804Z,18.57
2023-01-30T06:49:43.780Z,19.47
2023-01-30T06:52:12.286Z,20.33
2023-01-30T06:54:40.734Z,21.60
2023-01-30T06:57:09.486Z,20.77
2023-01-30T07:02:19.708Z,19.40
2023-01-30T07:04:49.010Z,20.57
2023-01-30T07:07:17.625Z,21.43
2023-01-30T07:09:53.263Z,22.63
2023-01-30T07:28:42.801Z,19.13
2023-01-30T08:22:41.782Z,21.53
2023-01-30T08:25:11.341Z,21.67
2023-01-30T08:43:51.845Z,22.70
2023-01-30T08:46:22.119Z,23.20
2023-01-30T08:48:50.454Z,23.30
2023-01-30T08:51:18.928Z,21.53
2023-01-30T08:53:46.782Z,22.20
2023-01-30T08:56:14.433Z,22.87
2023-01-30T08:58:43.814Z,21.67
2023-01-30T09:01:11.875Z,21.10
2023-01-30T09:03:39.833Z,23.03
2023-01-30T09:06:07.597Z,21.53
2023-01-30T09:08:35.680Z,22.30
2023-01-30T09:11:04.298Z,21.70
2023-01-30T09:13:32.015Z,21.60
2023-01-30T09:16:00.553Z,21.27
2023-01-30T09:18:28.316Z,22.67
2023-01-30T09:21:03.356Z,23.83
2023-01-30T09:23:31.411Z,23.07
2023-01-30T09:26:00.521Z,23.77
2023-01-30T09:28:28.727Z,22.20
2023-01-30T09:31:00.093Z,24.17
2023-01-30T09:33:27.336Z,22.70
2023-01-30T09:35:55.052Z,23.10
2023-01-30T09:38:22.847Z,24.07
2023-01-30T09:40:55.838Z,28.43
2023-01-30T09:43:23.275Z,26.83
2023-01-30T09:45:58.933Z,24.50
2023-01-30T09:48:31.092Z,22.67
2023-01-30T09:51:18.224Z,24.50
2023-01-30T09:53:53.508Z,23.15
2023-01-30T09:56:21.394Z,24.97
2023-01-30T09:59:00.372Z,23.87
2023-01-30T10:01:30.537Z,24.70
2023-01-30T10:04:12.415Z,24.17
2023-01-30T10:06:45.054Z,23.60
2023-01-30T10:09:14.509Z,23.07
2023-01-30T10:11:44.151Z,22.77
2023-01-30T10:14:20.368Z,22.90
2023-01-30T10:17:24.669Z,24.07
2023-01-30T10:20:32.712Z,23.20
2023-01-30T10:23:40.195Z,23.08
2023-01-30T10:26:07.554Z,23.50
2023-01-30T10:29:07.592Z,25.13
2023-01-30T10:31:51.577Z,24.33
2023-01-30T10:34:32.992Z,24.27
2023-01-30T10:37:10.419Z,24.47
2023-01-30T10:40:14.691Z,24.33
2023-01-30T10:42:55.115Z,36.73
2023-01-30T10:45:25.511Z,27.37
2023-01-30T10:47:56.719Z,26.73
2023-01-30T10:50:43.240Z,28.17
2023-01-30T10:53:21.819Z,27.40
2023-01-30T10:55:51.322Z,26.70
2023-01-30T10:58:56.482Z,27.07
2023-01-30T11:01:33.682Z,24.00
2023-01-30T11:04:03.675Z,25.27
2023-01-30T11:06:31.099Z,25.33
2023-01-30T11:08:59.447Z,25.50
2023-01-30T11:11:50.472Z,25.37
2023-01-30T11:14:18.089Z,24.13
2023-01-30T11:16:52.080Z,22.97
2023-01-30T11:19:22.201Z,22.53
2023-01-30T11:22:12.129Z,22.80
2023-01-30T11:24:43.675Z,21.40
2023-01-30T11:27:56.000Z,22.00
2023-01-30T11:30:27.553Z,22.13
2023-01-30T11:33:05.845Z,22.83
2023-01-30T11:35:34.763Z,21.00
2023-01-30T11:38:12.966Z,21.43
2023-01-30T11:40:41.435Z,22.20
2023-01-30T11:43:13.555Z,20.63
2023-01-30T11:45:48.404Z,21.23
2023-01-30T11:48:32.993Z,20.73
2023-01-30T11:51:07.841Z,20.40
2023-01-30T11:53:47.089Z,19.20
2023-01-30T11:56:33.444Z,19.53
2023-01-30T11:59:02.387Z,19.60
2023-01-30T12:01:30.808Z,18.83
2023-01-30T12:03:57.746Z,19.23
2023-01-30T12:06:33.197Z,19.43
2023-01-30T12:09:00.617Z,18.47
2023-01-30T12:11:44.857Z,19.53
2023-01-30T12:14:29.827Z,19.63
2023-01-30T12:17:19.598Z,19.33
2023-01-30T12:20:11.517Z,19.43
2023-01-30T12:22:46.485Z,18.83
2023-01-30T12:25:35.806Z,19.60
2023-01-30T12:28:25.535Z,19.13
2023-01-30T12:30:56.770Z,19.53
2023-01-30T12:33:26.539Z,18.33
2023-01-30T12:36:05.637Z,19.63
2023-01-30T12:38:51.396Z,19.03
2023-01-30T12:41:44.195Z,18.53
2023-01-30T12:44:42.334Z,18.60
2023-01-30T12:47:27.422Z,19.93
2023-01-30T12:49:57.870Z,18.43
2023-01-30T12:52:52.681Z,19.43
2023-01-30T12:55:27.753Z,19.50
2023-01-30T12:58:07.172Z,17.63
2023-01-30T13:01:01.382Z,20.87
2023-01-30T13:03:42.172Z,20.30
2023-01-30T13:06:19.265Z,20.13
2023-01-30T13:09:16.518Z,21.10
2023-01-30T13:11:55.094Z,19.60
2023-01-30T13:14:30.048Z,18.87
2023-01-30T13:17:16.710Z,20.00
2023-01-30T13:19:50.715Z,18.93
2023-01-30T13:22:58.870Z,19.70
2023-01-30T13:25:41.143Z,19.23
2023-01-30T13:28:19.306Z,19.73
2023-01-30T13:30:46.611Z,18.37
2023-01-30T13:33:29.453Z,19.00
2023-01-30T13:36:03.094Z,19.53
2023-01-30T13:38:50.336Z,19.30
2023-01-30T13:41:18.368Z,18.70
2023-01-30T13:43:50.005Z,18.47
2023-01-30T13:46:20.522Z,18.60
2023-01-30T13:49:05.915Z,19.33
2023-01-30T13:51:49.697Z,17.63
2023-01-30T13:54:22.751Z,18.63
2023-01-30T13:57:31.041Z,19.00
2023-01-30T14:00:10.116Z,17.90
2023-01-30T14:03:08.553Z,18.27
2023-01-30T14:06:03.318Z,19.03
2023-01-30T14:08:34.066Z,18.73
2023-01-30T14:11:01.564Z,18.40
2023-01-30T14:13:30.146Z,19.77
2023-01-30T14:16:02.091Z,19.23
2023-01-30T14:18:42.612Z,19.20
2023-01-30T14:21:40.341Z,19.63
2023-01-30T14:24:35.292Z,17.33
2023-01-30T14:27:23.769Z,18.53
2023-01-30T14:29:52.562Z,18.90
2023-01-30T14:32:19.274Z,19.30
2023-01-30T14:35:39.125Z,19.17
2023-01-30T14:38:14.890Z,18.73
2023-01-30T14:41:06.675Z,19.13
2023-01-30T14:43:42.465Z,18.97
2023-01-30T14:46:38.065Z,17.47
2023-01-30T14:49:06.887Z,19.53
2023-01-30T14:51:59.218Z,18.23
2023-01-30T14:54:40.929Z,19.13
2023-01-30T14:57:21.995Z,18.73
2023-01-30T15:00:14.986Z,18.47
2023-01-30T15:02:44.413Z,17.67
2023-01-30T15:06:02.774Z,18.30
2023-01-30T15:08:50.324Z,17.55
2023-01-30T15:14:10.270Z,18.47
2023-01-30T15:16:49.342Z,17.93
2023-01-30T15:19:24.816Z,18.97
2023-01-30T15:22:32.739Z,19.00
2023-01-30T15:25:40.576Z,17.90
2023-01-30T15:28:22.786Z,17.65
2023-01-30T15:31:08.466Z,19.03
2023-01-30T15:33:35.774Z,19.67
2023-01-30T15:36:38.950Z,19.00
2023-01-30T15:39:25.386Z,20.07
2023-01-30T15:41:53.107Z,18.03
2023-01-30T15:44:35.010Z,18.80
2023-01-30T15:47:23.878Z,19.33
2023-01-30T15:50:03.222Z,19.87
2023-01-30T15:52:37.372Z,20.13
2023-01-30T15:55:05.349Z,19.07
2023-01-30T15:57:35.209Z,20.53
2023-01-30T16:00:03.552Z,19.07
2023-01-30T16:02:35.918Z,19.67
2023-01-30T16:05:36.245Z,20.40
2023-01-30T16:08:11.185Z,18.20
2023-01-30T16:10:44.828Z,21.10
2023-01-30T16:13:12.962Z,21.03
2023-01-30T16:15:43.148Z,20.53
2023-01-30T16:18:19.308Z,19.73
2023-01-30T16:21:00.119Z,19.98
2023-01-30T16:23:36.892Z,19.33
2023-01-30T16:26:03.784Z,19.67
2023-01-30T16:28:31.508Z,19.90
2023-01-30T16:31:06.326Z,19.63
2023-01-30T16:33:36.999Z,20.37
2023-01-30T16:36:06.799Z,22.00
2023-01-30T16:38:37.764Z,23.93
2023-01-30T16:41:05.151Z,22.67
2023-01-30T16:43:34.077Z,24.93
2023-01-30T16:46:42.237Z,26.10
2023-01-30T16:49:26.005Z,25.85
2023-01-30T16:52:14.624Z,22.93
2023-01-30T16:54:46.213Z,27.33
2023-01-30T16:57:28.595Z,26.77
2023-01-30T17:00:03.876Z,28.03
2023-01-30T17:02:55.131Z,28.90
2023-01-30T17:05:29.415Z,26.80
2023-01-30T17:07:56.611Z,27.40
2023-01-30T17:10:28.859Z,30.70
2023-01-30T17:12:57.617Z,28.97
2023-01-30T17:15:33.353Z,31.00
2023-01-30T17:18:00.609Z,28.50
2023-01-30T17:20:51.798Z,28.80
2023-01-30T17:23:20.310Z,27.07
2023-01-30T17:25:47.881Z,29.90
2023-01-30T17:28:21.395Z,29.90
2023-01-30T17:30:50.386Z,28.33
2023-01-30T17:33:18.779Z,27.47
2023-01-30T17:35:46.674Z,27.10
2023-01-30T17:38:14.574Z,28.53
2023-01-30T17:40:43.098Z,28.13
2023-01-30T17:43:13.173Z,27.63
2023-01-30T17:45:40.597Z,27.10
2023-01-30T17:48:08.304Z,27.80
2023-01-30T17:50:36.679Z,28.40
2023-01-30T17:53:04.302Z,28.53
2023-01-30T17:55:33.077Z,27.97
2023-01-30T17:58:00.731Z,29.27
2023-01-30T18:00:28.845Z,29.27
2023-01-30T18:02:56.561Z,30.67
2023-01-30T18:05:24.190Z,29.23
2023-01-30T18:07:52.274Z,30.90
2023-01-30T18:10:20.571Z,31.40
2023-01-30T18:12:48.398Z,30.20
2023-01-30T18:15:16.246Z,28.03
2023-01-30T18:17:47.743Z,27.77
2023-01-30T18:20:16.676Z,26.40
2023-01-30T18:22:44.787Z,26.53
2023-01-30T18:25:13.847Z,26.47
2023-01-30T18:27:44.727Z,26.57
2023-01-30T18:30:17.258Z,26.73
2023-01-30T18:32:52.842Z,27.10
2023-01-30T18:35:22.291Z,27.40
2023-01-30T18:37:50.299Z,27.63
2023-01-30T18:40:20.159Z,28.50
2023-01-30T18:42:47.539Z,29.23
2023-01-30T18:45:15.613Z,28.67
2023-01-30T18:47:43.739Z,27.47
2023-01-30T18:50:12.962Z,28.73
2023-01-30T18:52:40.615Z,28.07
2023-01-30T18:55:08.966Z,28.73
2023-01-30T18:57:36.609Z,29.70
2023-01-30T19:00:06.212Z,28.03
2023-01-30T19:02:34.375Z,27.47
2023-01-30T19:05:01.792Z,24.10
2023-01-30T19:07:29.686Z,27.17
2023-01-30T19:09:57.698Z,26.13
2023-01-30T19:12:43.763Z,27.27
2023-01-30T19:15:11.902Z,26.97
2023-01-30T19:17:39.545Z,26.97
2023-01-30T19:20:11.150Z,29.03
2023-01-30T19:22:39.209Z,26.40
2023-01-30T19:25:08.174Z,28.73
2023-01-30T19:27:37.348Z,30.27
2023-01-30T19:30:07.612Z,35.43
2023-01-30T19:32:35.391Z,39.20
2023-01-30T19:35:03.132Z,33.23
2023-01-30T19:37:30.722Z,29.13
2023-01-30T19:39:58.757Z,29.70
2023-01-30T19:42:26.896Z,30.03
2023-01-30T19:44:54.518Z,30.37
2023-01-30T19:47:23.014Z,31.27
2023-01-30T19:49:51.222Z,33.03
2023-01-30T19:52:19.380Z,32.67
2023-01-30T19:54:48.396Z,34.33
2023-01-30T19:57:16.495Z,33.77
2023-01-30T20:13:07.643Z,29.10
2023-01-30T20:26:52.064Z,30.73
2023-01-30T20:31:55.280Z,30.90
2023-01-30T20:34:24.037Z,32.83
2023-01-30T20:36:52.483Z,31.90
2023-01-30T20:47:47.697Z,30.40
2023-01-30T20:50:15.703Z,29.30
2023-01-30T20:52:43.928Z,31.53
2023-01-30T20:55:12.502Z,31.87
2023-01-30T20:57:43.589Z,31.20
2023-01-30T21:00:13.267Z,31.07
2023-01-30T21:02:42.731Z,30.70
2023-01-30T21:05:10.524Z,30.17
2023-01-30T21:07:38.540Z,30.80
2023-01-30T21:10:10.433Z,29.40
2023-01-30T22:09:06.334Z,29.47
2023-01-30T22:11:34.686Z,32.23
2023-01-30T22:14:02.813Z,31.60
2023-01-30T22:16:33.176Z,30.40
2023-01-30T22:19:03.185Z,29.47
2023-01-30T22:21:34.076Z,28.87
2023-01-30T22:24:02.178Z,28.80
2023-01-30T22:26:30.262Z,27.33
2023-01-30T22:28:59.432Z,28.00
2023-01-30T22:31:28.889Z,27.00
2023-01-30T22:33:56.550Z,26.27
2023-01-30T22:36:26.020Z,26.97
2023-01-30T22:38:54.262Z,25.80
2023-01-30T22:41:25.703Z,26.63
2023-01-30T22:43:55.584Z,26.23
2023-01-30T22:46:50.083Z,25.40
2023-01-30T22:49:18.049Z,24.47
2023-01-30T22:51:45.953Z,25.63
2023-01-30T22:54:17.230Z,26.33
2023-01-30T22:56:46.314Z,25.13
2023-01-30T22:59:14.463Z,25.73
2023-01-30T23:01:43.345Z,27.37
2023-01-30T23:04:37.797Z,27.93
2023-01-30T23:07:06.109Z,28.37
2023-01-30T23:09:34.084Z,28.93
2023-01-30T23:12:20.755Z,27.30
2023-01-30T23:14:48.825Z,27.27
2023-01-30T23:17:34.754Z,27.53
2023-01-30T23:20:02.700Z,26.60
2023-01-30T23:22:30.895Z,27.97
2023-01-30T23:24:58.999Z,28.40
2023-01-30T23:27:27.169Z,27.90
2023-01-30T23:29:55.256Z,27.00
2023-01-30T23:32:23.677Z,26.13
2023-01-30T23:34:50.900Z,26.13
2023-01-30T23:37:18.502Z,25.23
2023-01-30T23:39:46.708Z,26.63
2023-01-30T23:42:14.791Z,27.70
2023-01-30T23:44:42.814Z,26.10
2023-01-30T23:47:10.790Z,24.40
2023-01-30T23:49:38.747Z,25.60
2023-01-30T23:52:07.098Z,25.53
2023-01-30T23:54:35.230Z,24.67
2023-01-30T23:57:03.583Z,24.73
2023-01-30T23:59:31.360Z,23.40
